createdAt,value
2022-09-23T00:00:21.641Z,1012.17
2022-09-23T00:01:21.695Z,1012.16
2022-09-23T00:02:21.638Z,1012.15
2022-09-23T00:03:21.578Z,1012.14
2022-09-23T00:04:21.567Z,1012.17
2022-09-23T00:05:21.583Z,1012.22
2022-09-23T00:06:21.538Z,1012.18
2022-09-23T00:07:21.536Z,1012.14
2022-09-23T00:08:21.543Z,1012.14
2022-09-23T00:09:21.506Z,1012.17
2022-09-23T00:10:21.515Z,1012.14
2022-09-23T00:11:21.508Z,1012.13
2022-09-23T00:12:21.478Z,1012.15
2022-09-23T00:13:21.468Z,1012.14
2022-09-23T00:14:21.458Z,1012.20
2022-09-23T00:15:21.455Z,1012.15
2022-09-23T00:16:21.458Z,1012.17
2022-09-23T00:17:21.429Z,1012.19
2022-09-23T00:18:21.407Z,1012.14
2022-09-23T00:19:21.402Z,1012.13
2022-09-23T00:20:21.411Z,1012.12
2022-09-23T00:21:21.377Z,1012.13
2022-09-23T00:22:22.221Z,1012.08
2022-09-23T00:23:21.351Z,1012.13
2022-09-23T00:24:21.363Z,1012.05
2022-09-23T00:25:21.326Z,1012.10
2022-09-23T00:26:21.351Z,1012.03
2022-09-23T00:27:21.313Z,1012.10
2022-09-23T00:28:21.313Z,1012.05
2022-09-23T00:29:21.281Z,1012.04
2022-09-23T00:30:21.266Z,1012.03
2022-09-23T00:31:21.454Z,1011.99
2022-09-23T00:32:21.269Z,1011.97
2022-09-23T00:33:21.232Z,1011.98
2022-09-23T00:34:21.227Z,1011.99
2022-09-23T00:35:21.217Z,1011.98
2022-09-23T00:36:21.222Z,1012.02
2022-09-23T00:37:21.216Z,1012.01
2022-09-23T00:38:21.192Z,1011.98
2022-09-23T00:39:21.168Z,1012.00
2022-09-23T00:40:21.232Z,1011.93
2022-09-23T00:41:21.148Z,1011.93
2022-09-23T00:42:21.132Z,1012.02
2022-09-23T00:43:21.135Z,1011.99
2022-09-23T00:44:21.117Z,1011.95
2022-09-23T00:45:21.099Z,1011.95
2022-09-23T00:46:21.162Z,1011.97
2022-09-23T00:47:21.078Z,1011.99
2022-09-23T00:48:21.102Z,1011.94
2022-09-23T00:49:21.057Z,1011.93
2022-09-23T00:50:21.043Z,1011.94
2022-09-23T00:51:21.034Z,1011.89
2022-09-23T00:52:21.015Z,1011.92
2022-09-23T00:53:21.026Z,1011.92
2022-09-23T00:54:21.015Z,1011.87
2022-09-23T00:55:20.991Z,1011.85
2022-09-23T00:56:21.090Z,1011.78
2022-09-23T00:57:20.967Z,1011.84
2022-09-23T00:58:20.953Z,1011.86
2022-09-23T00:59:20.944Z,1011.82
2022-09-23T01:00:20.946Z,1011.86
2022-09-23T01:01:20.971Z,1011.83
2022-09-23T01:02:20.973Z,1011.76
2022-09-23T01:03:20.905Z,1011.77
2022-09-23T01:04:20.897Z,1011.79
2022-09-23T01:05:20.879Z,1011.76
2022-09-23T01:06:20.864Z,1011.78
2022-09-23T01:07:20.853Z,1011.77
2022-09-23T01:08:20.845Z,1011.74
2022-09-23T01:09:20.844Z,1011.76
2022-09-23T01:10:20.833Z,1011.71
2022-09-23T01:11:20.814Z,1011.74
2022-09-23T01:12:20.827Z,1011.78
2022-09-23T01:13:20.794Z,1011.77
2022-09-23T01:14:20.777Z,1011.74
2022-09-23T01:15:20.785Z,1011.69
2022-09-23T01:16:20.776Z,1011.72
2022-09-23T01:17:20.764Z,1011.65
2022-09-23T01:18:20.730Z,1011.70
2022-09-23T01:19:20.731Z,1011.74
2022-09-23T01:20:20.750Z,1011.74
2022-09-23T01:21:20.700Z,1011.77
2022-09-23T01:22:20.695Z,1011.68
2022-09-23T01:23:20.687Z,1011.72
2022-09-23T01:24:20.679Z,1011.68
2022-09-23T01:25:20.817Z,1011.61
2022-09-23T01:26:20.637Z,1011.66
2022-09-23T01:27:20.738Z,1011.68
2022-09-23T01:28:20.654Z,1011.70
2022-09-23T01:29:20.605Z,1011.60
2022-09-23T01:30:20.609Z,1011.59
2022-09-23T01:31:20.638Z,1011.60
2022-09-23T01:32:20.665Z,1011.62
2022-09-23T01:33:20.558Z,1011.58
2022-09-23T01:34:20.551Z,1011.59
2022-09-23T01:35:20.552Z,1011.59
2022-09-23T01:36:20.523Z,1011.63
2022-09-23T01:37:20.512Z,1011.64
2022-09-23T01:38:20.521Z,1011.63
2022-09-23T01:39:20.493Z,1011.62
2022-09-23T01:40:20.526Z,1011.64
2022-09-23T01:41:20.481Z,1011.63
2022-09-23T01:42:20.458Z,1011.61
2022-09-23T01:43:20.451Z,1011.56
2022-09-23T01:44:20.463Z,1011.62
2022-09-23T01:45:20.446Z,1011.52
2022-09-23T01:46:20.444Z,1011.53
2022-09-23T01:47:20.424Z,1011.58
2022-09-23T01:48:20.475Z,1011.53
2022-09-23T01:49:20.380Z,1011.53
2022-09-23T01:50:20.369Z,1011.52
2022-09-23T01:51:20.366Z,1011.49
2022-09-23T01:52:20.366Z,1011.49
2022-09-23T01:53:20.348Z,1011.45
2022-09-23T01:54:20.385Z,1011.52
2022-09-23T01:55:20.314Z,1011.51
2022-09-23T01:56:20.349Z,1011.51
2022-09-23T01:57:20.317Z,1011.52
2022-09-23T01:58:20.345Z,1011.44
2022-09-23T01:59:20.310Z,1011.48
2022-09-23T02:00:20.357Z,1011.43
2022-09-23T02:01:20.360Z,1011.48
2022-09-23T02:02:20.363Z,1011.46
2022-09-23T02:03:20.243Z,1011.50
2022-09-23T02:04:27.279Z,1011.42
2022-09-23T02:05:20.197Z,1011.46
2022-09-23T02:06:20.183Z,1011.44
2022-09-23T02:07:20.192Z,1011.40
2022-09-23T02:08:20.201Z,1011.41
2022-09-23T02:09:20.160Z,1011.42
2022-09-23T02:10:20.142Z,1011.36
2022-09-23T02:11:20.131Z,1011.41
2022-09-23T02:12:20.135Z,1011.38
2022-09-23T02:13:20.122Z,1011.44
2022-09-23T02:14:20.124Z,1011.37
2022-09-23T02:15:20.107Z,1011.39
2022-09-23T02:16:20.186Z,1011.35
2022-09-23T02:17:20.095Z,1011.35
2022-09-23T02:18:20.074Z,1011.32
2022-09-23T02:19:20.037Z,1011.32
2022-09-23T02:20:20.029Z,1011.36
2022-09-23T02:21:20.043Z,1011.35
2022-09-23T02:22:20.009Z,1011.31
2022-09-23T02:23:20.011Z,1011.33
2022-09-23T02:24:19.981Z,1011.25
2022-09-23T02:25:19.972Z,1011.23
2022-09-23T02:26:19.956Z,1011.23
2022-09-23T02:27:19.959Z,1011.20
2022-09-23T02:28:19.971Z,1011.21
2022-09-23T02:29:19.932Z,1011.25
2022-09-23T02:30:19.911Z,1011.23
2022-09-23T02:31:20.075Z,1011.16
2022-09-23T02:32:19.922Z,1011.13
2022-09-23T02:33:19.905Z,1011.13
2022-09-23T02:34:19.870Z,1011.13
2022-09-23T02:35:19.867Z,1011.15
2022-09-23T02:36:19.844Z,1011.18
2022-09-23T02:37:19.841Z,1011.13
2022-09-23T02:38:19.838Z,1011.19
2022-09-23T02:39:19.824Z,1011.07
2022-09-23T02:40:19.858Z,1011.11
2022-09-23T02:41:19.797Z,1011.04
2022-09-23T02:42:19.786Z,1011.08
2022-09-23T02:43:19.798Z,1011.08
2022-09-23T02:44:19.773Z,1011.07
2022-09-23T02:45:19.794Z,1011.12
2022-09-23T02:46:19.821Z,1011.09
2022-09-23T02:47:19.732Z,1011.09
2022-09-23T02:48:19.729Z,1011.03
2022-09-23T02:49:19.703Z,1011.11
2022-09-23T02:50:19.725Z,1011.07
2022-09-23T02:51:19.679Z,1011.05
2022-09-23T02:52:19.666Z,1011.04
2022-09-23T02:53:19.657Z,1011.08
2022-09-23T02:54:19.641Z,1010.99
2022-09-23T02:55:19.658Z,1010.96
2022-09-23T02:56:19.700Z,1010.99
2022-09-23T02:57:19.621Z,1011.01
2022-09-23T02:58:19.603Z,1011.00
2022-09-23T02:59:19.592Z,1010.89
2022-09-23T03:00:19.594Z,1010.97
2022-09-23T03:01:19.634Z,1010.95
2022-09-23T03:02:19.621Z,1010.96
2022-09-23T03:03:19.541Z,1010.91
2022-09-23T03:04:19.558Z,1010.94
2022-09-23T03:05:19.529Z,1010.95
2022-09-23T03:06:19.514Z,1010.98
2022-09-23T03:07:19.505Z,1010.95
2022-09-23T03:08:19.497Z,1010.92
2022-09-23T03:09:19.477Z,1010.94
2022-09-23T03:10:19.500Z,1010.89
2022-09-23T03:11:19.458Z,1010.91
2022-09-23T03:12:19.457Z,1010.93
2022-09-23T03:13:19.434Z,1010.98
2022-09-23T03:14:19.436Z,1010.94
2022-09-23T03:15:19.407Z,1010.95
2022-09-23T03:16:19.472Z,1010.98
2022-09-23T03:17:19.388Z,1010.94
2022-09-23T03:18:19.379Z,1010.89
2022-09-23T03:19:19.366Z,1010.94
2022-09-23T03:20:19.377Z,1010.98
2022-09-23T03:21:19.359Z,1010.91
2022-09-23T03:22:19.340Z,1010.88
2022-09-23T03:23:19.326Z,1010.90
2022-09-23T03:24:19.300Z,1010.87
2022-09-23T03:25:19.298Z,1010.87
2022-09-23T03:26:19.297Z,1010.89
2022-09-23T03:27:19.290Z,1010.85
2022-09-23T03:28:19.259Z,1010.94
2022-09-23T03:29:19.259Z,1010.92
2022-09-23T03:30:19.270Z,1010.93
2022-09-23T03:31:19.325Z,1010.92
2022-09-23T03:32:19.217Z,1010.91
2022-09-23T03:33:19.211Z,1010.91
2022-09-23T03:34:19.190Z,1010.87
2022-09-23T03:35:19.231Z,1010.86
2022-09-23T03:36:19.224Z,1010.82
2022-09-23T03:37:19.159Z,1010.83
2022-09-23T03:38:19.159Z,1010.81
2022-09-23T03:39:19.144Z,1010.83
2022-09-23T03:40:19.196Z,1010.84
2022-09-23T03:41:19.153Z,1010.79
2022-09-23T03:42:19.106Z,1010.77
2022-09-23T03:43:19.104Z,1010.84
2022-09-23T03:44:19.087Z,1010.78
2022-09-23T03:45:19.088Z,1010.86
2022-09-23T03:46:19.070Z,1010.80
2022-09-23T03:47:19.065Z,1010.86
2022-09-23T03:48:19.040Z,1010.77
2022-09-23T03:49:19.029Z,1010.77
2022-09-23T03:50:19.010Z,1010.72
2022-09-23T03:51:19.017Z,1010.73
2022-09-23T03:52:19.061Z,1010.75
2022-09-23T03:53:18.987Z,1010.72
2022-09-23T03:54:18.984Z,1010.66
2022-09-23T03:55:18.959Z,1010.71
2022-09-23T03:56:18.960Z,1010.66
2022-09-23T03:57:18.943Z,1010.67
2022-09-23T03:58:18.932Z,1010.74
2022-09-23T03:59:18.965Z,1010.64
2022-09-23T04:00:18.918Z,1010.69
2022-09-23T04:01:18.975Z,1010.62
2022-09-23T04:02:19.003Z,1010.60
2022-09-23T04:03:18.874Z,1010.57
2022-09-23T04:04:18.868Z,1010.62
2022-09-23T04:05:18.844Z,1010.57
2022-09-23T04:06:18.833Z,1010.57
2022-09-23T04:07:18.845Z,1010.62
2022-09-23T04:08:18.846Z,1010.59
2022-09-23T04:09:18.803Z,1010.58
2022-09-23T04:10:18.792Z,1010.57
2022-09-23T04:11:18.782Z,1010.55
2022-09-23T04:12:18.794Z,1010.56
2022-09-23T04:13:18.760Z,1010.57
2022-09-23T04:14:18.745Z,1010.59
2022-09-23T04:15:18.748Z,1010.59
2022-09-23T04:16:18.791Z,1010.63
2022-09-23T04:17:18.711Z,1010.63
2022-09-23T04:18:18.723Z,1010.56
2022-09-23T04:19:18.690Z,1010.59
2022-09-23T04:20:18.677Z,1010.59
2022-09-23T04:21:18.672Z,1010.51
2022-09-23T04:22:18.652Z,1010.55
2022-09-23T04:23:18.651Z,1010.59
2022-09-23T04:24:18.687Z,1010.53
2022-09-23T04:25:18.617Z,1010.54
2022-09-23T04:26:18.612Z,1010.58
2022-09-23T04:27:18.599Z,1010.54
2022-09-23T04:28:18.611Z,1010.47
2022-09-23T04:29:18.595Z,1010.50
2022-09-23T04:30:18.573Z,1010.48
2022-09-23T04:31:18.634Z,1010.53
2022-09-23T04:32:18.546Z,1010.45
2022-09-23T04:33:18.541Z,1010.45
2022-09-23T04:34:18.556Z,1010.38
2022-09-23T04:35:18.506Z,1010.39
2022-09-23T04:36:18.499Z,1010.34
2022-09-23T04:37:18.482Z,1010.34
2022-09-23T04:38:18.488Z,1010.37
2022-09-23T04:39:18.476Z,1010.34
2022-09-23T04:40:18.567Z,1010.36
2022-09-23T04:41:18.441Z,1010.40
2022-09-23T04:42:18.458Z,1010.31
2022-09-23T04:43:18.413Z,1010.32
2022-09-23T04:44:18.410Z,1010.30
2022-09-23T04:45:18.395Z,1010.34
2022-09-23T04:46:18.446Z,1010.29
2022-09-23T04:47:18.371Z,1010.32
2022-09-23T04:48:18.361Z,1010.31
2022-09-23T04:49:18.353Z,1010.35
2022-09-23T04:50:18.358Z,1010.34
2022-09-23T04:51:18.329Z,1010.26
2022-09-23T04:52:18.324Z,1010.29
2022-09-23T04:53:18.331Z,1010.30
2022-09-23T04:54:18.295Z,1010.28
2022-09-23T04:55:18.289Z,1010.25
2022-09-23T04:56:18.313Z,1010.26
2022-09-23T04:57:18.263Z,1010.22
2022-09-23T04:58:18.254Z,1010.21
2022-09-23T04:59:18.238Z,1010.16
2022-09-23T05:00:18.233Z,1010.20
2022-09-23T05:01:18.387Z,1010.20
2022-09-23T05:02:18.318Z,1010.18
2022-09-23T05:03:18.214Z,1010.23
2022-09-23T05:04:18.184Z,1010.21
2022-09-23T05:05:18.170Z,1010.20
2022-09-23T05:06:18.161Z,1010.24
2022-09-23T05:07:18.191Z,1010.25
2022-09-23T05:08:18.138Z,1010.22
2022-09-23T05:09:18.126Z,1010.25
2022-09-23T05:10:18.120Z,1010.21
2022-09-23T05:11:18.107Z,1010.24
2022-09-23T05:12:18.127Z,1010.23
2022-09-23T05:13:18.078Z,1010.30
2022-09-23T05:14:18.067Z,1010.35
2022-09-23T05:15:18.060Z,1010.31
2022-09-23T05:16:18.151Z,1010.31
2022-09-23T05:17:18.057Z,1010.30
2022-09-23T05:18:20.832Z,1010.32
2022-09-23T05:19:18.015Z,1010.42
2022-09-23T05:20:18.007Z,1010.40
2022-09-23T05:21:18.007Z,1010.41
2022-09-23T05:22:17.982Z,1010.39
2022-09-23T05:23:17.978Z,1010.41
2022-09-23T05:24:17.969Z,1010.42
2022-09-23T05:25:17.945Z,1010.38
2022-09-23T05:26:17.930Z,1010.34
2022-09-23T05:27:17.920Z,1010.33
2022-09-23T05:28:17.947Z,1010.44
2022-09-23T05:29:17.912Z,1010.42
2022-09-23T05:30:17.884Z,1010.37
2022-09-23T05:31:20.357Z,1010.42
2022-09-23T05:32:17.891Z,1010.34
2022-09-23T05:33:17.855Z,1010.50
2022-09-23T05:34:17.861Z,1010.41
2022-09-23T05:35:17.830Z,1010.43
2022-09-23T05:36:17.844Z,1010.38
2022-09-23T05:37:17.808Z,1010.39
2022-09-23T05:38:17.802Z,1010.37
2022-09-23T05:39:17.789Z,1010.42
2022-09-23T05:40:17.865Z,1010.36
2022-09-23T05:41:17.830Z,1010.43
2022-09-23T05:42:17.762Z,1010.44
2022-09-23T05:43:17.743Z,1010.48
2022-09-23T05:44:17.750Z,1010.46
2022-09-23T05:45:17.719Z,1010.45
2022-09-23T05:46:17.866Z,1010.49
2022-09-23T05:47:17.709Z,1010.51
2022-09-23T05:48:17.686Z,1010.49
2022-09-23T05:49:17.675Z,1010.52
2022-09-23T05:50:17.691Z,1010.46
2022-09-23T05:51:17.672Z,1010.50
2022-09-23T05:52:17.661Z,1010.48
2022-09-23T05:53:17.626Z,1010.43
2022-09-23T05:54:17.629Z,1010.42
2022-09-23T05:55:17.604Z,1010.41
2022-09-23T05:56:17.724Z,1010.48
2022-09-23T05:57:17.586Z,1010.44
2022-09-23T05:58:17.571Z,1010.44
2022-09-23T05:59:17.562Z,1010.45
2022-09-23T06:00:17.580Z,1010.44
2022-09-23T06:01:17.809Z,1010.41
2022-09-23T06:02:17.604Z,1010.48
2022-09-23T06:03:17.588Z,1010.53
2022-09-23T06:04:17.511Z,1010.44
2022-09-23T06:05:17.527Z,1010.43
2022-09-23T06:06:17.482Z,1010.47
2022-09-23T06:07:17.468Z,1010.44
2022-09-23T06:08:17.484Z,1010.47
2022-09-23T06:09:17.443Z,1010.45
2022-09-23T06:10:17.438Z,1010.47
2022-09-23T06:11:17.439Z,1010.54
2022-09-23T06:12:17.411Z,1010.48
2022-09-23T06:13:17.401Z,1010.47
2022-09-23T06:14:17.393Z,1010.43
2022-09-23T06:15:17.388Z,1010.43
2022-09-23T06:16:17.435Z,1010.42
2022-09-23T06:17:17.371Z,1010.43
2022-09-23T06:18:17.351Z,1010.38
2022-09-23T06:19:17.380Z,1010.38
2022-09-23T06:20:17.331Z,1010.36
2022-09-23T06:21:17.313Z,1010.41
2022-09-23T06:22:17.423Z,1010.37
2022-09-23T06:23:17.291Z,1010.44
2022-09-23T06:24:21.438Z,1010.40
2022-09-23T06:25:18.263Z,1010.39
2022-09-23T06:26:17.281Z,1010.44
2022-09-23T06:27:17.251Z,1010.41
2022-09-23T06:28:17.236Z,1010.36
2022-09-23T06:29:17.236Z,1010.34
2022-09-23T06:30:17.220Z,1010.39
2022-09-23T06:31:17.301Z,1010.39
2022-09-23T06:32:17.226Z,1010.38
2022-09-23T06:33:24.603Z,1010.38
2022-09-23T06:34:18.464Z,1010.38
2022-09-23T06:35:25.918Z,1010.43
2022-09-23T06:36:36.869Z,1010.42
2022-09-23T06:37:20.496Z,1010.38
2022-09-23T06:38:17.140Z,1010.37
2022-09-23T06:39:17.113Z,1010.37
2022-09-23T06:40:17.274Z,1010.33
2022-09-23T06:41:17.087Z,1010.31
2022-09-23T06:42:17.082Z,1010.30
2022-09-23T06:43:17.091Z,1010.39
2022-09-23T06:44:17.094Z,1010.24
2022-09-23T06:45:17.040Z,1010.31
2022-09-23T06:46:17.168Z,1010.32
2022-09-23T06:47:17.024Z,1010.29
2022-09-23T06:48:17.029Z,1010.34
2022-09-23T06:49:17.030Z,1010.37
2022-09-23T06:50:16.985Z,1010.36
2022-09-23T06:51:16.992Z,1010.31
2022-09-23T06:52:16.972Z,1010.36
2022-09-23T06:53:16.966Z,1010.40
2022-09-23T06:54:16.951Z,1010.36
2022-09-23T06:55:16.927Z,1010.38
2022-09-23T06:56:16.919Z,1010.37
2022-09-23T06:57:16.907Z,1010.44
2022-09-23T06:58:16.898Z,1010.55
2022-09-23T06:59:16.911Z,1010.55
2022-09-23T07:00:16.874Z,1010.53
2022-09-23T07:01:16.971Z,1010.45
2022-09-23T07:02:16.990Z,1010.37
2022-09-23T07:03:16.868Z,1010.38
2022-09-23T07:04:16.864Z,1010.39
2022-09-23T07:05:16.815Z,1010.48
2022-09-23T07:06:16.815Z,1010.49
2022-09-23T07:07:16.798Z,1010.46
2022-09-23T07:08:16.794Z,1010.45
2022-09-23T07:09:16.795Z,1010.37
2022-09-23T07:10:16.776Z,1010.38
2022-09-23T07:11:16.749Z,1010.31
2022-09-23T07:12:16.738Z,1010.34
2022-09-23T07:13:16.731Z,1010.37
2022-09-23T07:14:16.727Z,1010.32
2022-09-23T07:15:16.722Z,1010.39
2022-09-23T07:16:16.774Z,1010.37
2022-09-23T07:17:16.681Z,1010.30
2022-09-23T07:18:16.672Z,1010.33
2022-09-23T07:19:16.678Z,1010.35
2022-09-23T07:20:16.676Z,1010.35
2022-09-23T07:21:16.649Z,1010.35
2022-09-23T07:22:16.624Z,1010.31
2022-09-23T07:23:16.616Z,1010.37
2022-09-23T07:24:16.609Z,1010.36
2022-09-23T07:25:16.616Z,1010.40
2022-09-23T07:26:16.620Z,1010.44
2022-09-23T07:27:16.566Z,1010.51
2022-09-23T07:28:16.560Z,1010.48
2022-09-23T07:29:16.551Z,1010.44
2022-09-23T07:30:23.429Z,1010.47
2022-09-23T07:31:26.716Z,1010.49
2022-09-23T07:32:17.573Z,1010.52
2022-09-23T07:33:29.711Z,1010.43
2022-09-23T07:34:17.490Z,1010.48
2022-09-23T07:35:16.527Z,1010.45
2022-09-23T07:36:16.677Z,1010.41
2022-09-23T07:37:16.490Z,1010.45
2022-09-23T07:38:16.453Z,1010.44
2022-09-23T07:39:17.719Z,1010.37
2022-09-23T07:40:16.676Z,1010.42
2022-09-23T07:41:16.513Z,1010.44
2022-09-23T07:42:16.763Z,1010.40
2022-09-23T07:43:16.489Z,1010.41
2022-09-23T07:44:16.470Z,1010.43
2022-09-23T07:45:16.403Z,1010.37
2022-09-23T07:46:16.606Z,1010.40
2022-09-23T07:47:16.398Z,1010.42
2022-09-23T07:48:16.359Z,1010.34
2022-09-23T07:49:16.375Z,1010.35
2022-09-23T07:50:16.368Z,1010.35
2022-09-23T07:51:16.503Z,1010.37
2022-09-23T07:52:17.333Z,1010.39
2022-09-23T07:53:16.315Z,1010.35
2022-09-23T07:54:16.377Z,1010.41
2022-09-23T07:55:20.257Z,1010.36
2022-09-23T07:56:16.375Z,1010.35
2022-09-23T07:57:16.316Z,1010.32
2022-09-23T07:58:16.281Z,1010.35
2022-09-23T07:59:18.796Z,1010.38
2022-09-23T08:00:16.215Z,1010.42
2022-09-23T08:01:16.409Z,1010.42
2022-09-23T08:02:16.399Z,1010.40
2022-09-23T08:03:16.221Z,1010.43
2022-09-23T08:04:16.178Z,1010.47
2022-09-23T08:05:16.277Z,1010.41
2022-09-23T08:06:16.140Z,1010.46
2022-09-23T08:07:16.122Z,1010.42
2022-09-23T08:08:16.142Z,1010.38
2022-09-23T08:09:16.099Z,1010.44
2022-09-23T08:10:16.093Z,1010.45
2022-09-23T08:11:16.083Z,1010.46
2022-09-23T08:12:16.439Z,1010.41
2022-09-23T08:13:16.063Z,1010.42
2022-09-23T08:14:16.042Z,1010.48
2022-09-23T08:15:16.029Z,1010.47
2022-09-23T08:16:16.090Z,1010.47
2022-09-23T08:17:16.003Z,1010.45
2022-09-23T08:18:16.004Z,1010.48
2022-09-23T08:19:15.981Z,1010.47
2022-09-23T08:20:15.969Z,1010.50
2022-09-23T08:21:15.960Z,1010.53
2022-09-23T08:22:15.946Z,1010.47
2022-09-23T08:23:15.944Z,1010.46
2022-09-23T08:24:15.945Z,1010.50
2022-09-23T08:25:17.336Z,1010.47
2022-09-23T08:26:21.014Z,1010.45
2022-09-23T08:27:16.902Z,1010.49
2022-09-23T08:28:15.891Z,1010.41
2022-09-23T08:29:15.869Z,1010.45
2022-09-23T08:30:15.851Z,1010.43
2022-09-23T08:31:15.929Z,1010.43
2022-09-23T08:32:15.832Z,1010.36
2022-09-23T08:33:19.683Z,1010.37
2022-09-23T08:34:16.816Z,1010.47
2022-09-23T08:35:15.801Z,1010.37
2022-09-23T08:36:15.783Z,1010.37
2022-09-23T08:37:15.783Z,1010.36
2022-09-23T08:38:15.767Z,1010.38
2022-09-23T08:39:15.795Z,1010.32
2022-09-23T08:40:15.824Z,1010.31
2022-09-23T08:41:15.733Z,1010.36
2022-09-23T08:42:15.728Z,1010.37
2022-09-23T08:43:15.709Z,1010.28
2022-09-23T08:44:15.727Z,1010.30
2022-09-23T08:45:15.697Z,1010.30
2022-09-23T08:46:15.715Z,1010.35
2022-09-23T08:47:15.673Z,1010.33
2022-09-23T08:48:15.651Z,1010.35
2022-09-23T08:49:15.644Z,1010.35
2022-09-23T08:50:15.647Z,1010.42
2022-09-23T08:51:15.636Z,1010.38
2022-09-23T08:52:15.605Z,1010.36
2022-09-23T08:53:15.599Z,1010.37
2022-09-23T08:54:15.612Z,1010.33
2022-09-23T08:55:15.580Z,1010.40
2022-09-23T08:56:15.583Z,1010.40
2022-09-23T08:57:15.582Z,1010.41
2022-09-23T08:58:24.945Z,1010.42
2022-09-23T08:59:16.557Z,1010.45
2022-09-23T09:00:15.531Z,1010.48
2022-09-23T09:01:15.600Z,1010.44
2022-09-23T09:02:15.547Z,1010.42
2022-09-23T09:03:15.486Z,1010.44
2022-09-23T09:04:15.483Z,1010.43
2022-09-23T09:05:15.462Z,1010.43
2022-09-23T09:06:15.451Z,1010.39
2022-09-23T09:07:35.873Z,1010.36
2022-09-23T09:08:16.466Z,1010.35
2022-09-23T09:09:15.418Z,1010.41
2022-09-23T09:10:15.404Z,1010.34
2022-09-23T09:11:15.510Z,1010.39
2022-09-23T09:12:15.402Z,1010.34
2022-09-23T09:13:15.374Z,1010.37
2022-09-23T09:14:15.386Z,1010.30
2022-09-23T09:15:15.353Z,1010.32
2022-09-23T09:16:15.382Z,1010.29
2022-09-23T09:17:15.337Z,1010.33
2022-09-23T09:18:15.317Z,1010.26
2022-09-23T09:19:15.308Z,1010.34
2022-09-23T09:20:15.307Z,1010.40
2022-09-23T09:21:15.293Z,1010.32
2022-09-23T09:22:15.312Z,1010.33
2022-09-23T09:23:15.261Z,1010.31
2022-09-23T09:24:15.266Z,1010.25
2022-09-23T09:25:15.250Z,1010.21
2022-09-23T09:26:15.221Z,1010.24
2022-09-23T09:27:15.227Z,1010.19
2022-09-23T09:28:15.238Z,1010.23
2022-09-23T09:29:35.328Z,1010.19
2022-09-23T09:30:16.240Z,1010.12
2022-09-23T09:31:15.220Z,1010.17
2022-09-23T09:32:15.154Z,1010.17
2022-09-23T09:33:15.148Z,1010.17
2022-09-23T09:34:15.132Z,1010.19
2022-09-23T09:35:15.125Z,1010.18
2022-09-23T09:36:15.138Z,1010.13
2022-09-23T09:37:15.106Z,1010.13
2022-09-23T09:38:15.086Z,1010.13
2022-09-23T09:39:15.083Z,1010.11
2022-09-23T09:40:15.144Z,1010.11
2022-09-23T09:41:15.071Z,1010.14
2022-09-23T09:42:15.044Z,1010.11
2022-09-23T09:43:15.068Z,1010.13
2022-09-23T09:44:15.112Z,1010.12
2022-09-23T09:45:15.020Z,1010.12
2022-09-23T09:46:15.059Z,1010.15
2022-09-23T09:47:14.991Z,1010.09
2022-09-23T09:48:14.988Z,1010.16
2022-09-23T09:49:14.982Z,1010.08
2022-09-23T09:50:14.976Z,1010.04
2022-09-23T09:51:14.946Z,1010.07
2022-09-23T09:52:14.927Z,1010.07
2022-09-23T09:53:14.868Z,1010.05
2022-09-23T09:54:14.857Z,1010.12
2022-09-23T09:55:14.862Z,1010.08
2022-09-23T09:56:14.859Z,1010.13
2022-09-23T09:57:14.828Z,1010.09
2022-09-23T09:58:14.807Z,1010.12
2022-09-23T09:59:14.799Z,1010.06
2022-09-23T10:00:14.818Z,1010.08
2022-09-23T10:01:14.836Z,1010.06
2022-09-23T10:02:14.763Z,1010.04
2022-09-23T10:03:14.772Z,1010.06
2022-09-23T10:04:14.775Z,1010.00
2022-09-23T10:05:14.745Z,1010.02
2022-09-23T10:06:14.716Z,1010.04
2022-09-23T10:07:14.734Z,1009.99
2022-09-23T10:08:14.696Z,1009.96
2022-09-23T10:09:14.679Z,1009.93
2022-09-23T10:10:22.442Z,1009.98
2022-09-23T10:11:15.671Z,1009.97
2022-09-23T10:12:14.644Z,1009.98
2022-09-23T10:13:14.647Z,1009.94
2022-09-23T10:14:14.621Z,1009.98
2022-09-23T10:15:14.624Z,1009.96
2022-09-23T10:16:14.682Z,1009.98
2022-09-23T10:17:14.602Z,1009.94
2022-09-23T10:18:14.573Z,1009.98
2022-09-23T10:19:14.579Z,1009.96
2022-09-23T10:20:14.571Z,1009.98
2022-09-23T10:21:14.544Z,1009.87
2022-09-23T10:22:14.525Z,1009.96
2022-09-23T10:23:14.520Z,1009.96
2022-09-23T10:24:14.534Z,1009.88
2022-09-23T10:25:14.498Z,1009.84
2022-09-23T10:26:14.504Z,1009.88
2022-09-23T10:27:14.476Z,1009.90
2022-09-23T10:28:14.460Z,1009.91
2022-09-23T10:29:14.453Z,1009.93
2022-09-23T10:30:14.450Z,1009.88
2022-09-23T10:31:14.450Z,1009.89
2022-09-23T10:32:14.466Z,1009.92
2022-09-23T10:33:14.407Z,1009.88
2022-09-23T10:34:14.394Z,1009.89
2022-09-23T10:35:14.386Z,1009.84
2022-09-23T10:36:14.370Z,1009.86
2022-09-23T10:37:14.363Z,1009.90
2022-09-23T10:38:14.397Z,1009.89
2022-09-23T10:39:14.342Z,1009.88
2022-09-23T10:40:14.417Z,1009.85
2022-09-23T10:41:14.321Z,1009.89
2022-09-23T10:42:14.311Z,1009.83
2022-09-23T10:43:14.296Z,1009.85
2022-09-23T10:44:14.284Z,1009.82
2022-09-23T10:45:14.323Z,1009.86
2022-09-23T10:46:14.294Z,1009.89
2022-09-23T10:47:14.253Z,1009.84
2022-09-23T10:48:14.302Z,1009.81
2022-09-23T10:49:14.234Z,1009.83
2022-09-23T10:50:14.219Z,1009.79
2022-09-23T10:51:14.239Z,1009.80
2022-09-23T10:52:14.198Z,1009.83
2022-09-23T10:53:14.187Z,1009.73
2022-09-23T10:54:14.188Z,1009.76
2022-09-23T10:55:14.165Z,1009.79
2022-09-23T10:56:14.176Z,1009.78
2022-09-23T10:57:14.157Z,1009.78
2022-09-23T10:58:14.128Z,1009.76
2022-09-23T10:59:14.126Z,1009.76
2022-09-23T11:00:14.110Z,1009.80
2022-09-23T11:01:14.191Z,1009.75
2022-09-23T11:02:14.105Z,1009.79
2022-09-23T11:03:14.101Z,1009.77
2022-09-23T11:04:14.460Z,1009.79
2022-09-23T11:05:14.055Z,1009.81
2022-09-23T11:06:14.051Z,1009.81
2022-09-23T11:07:14.046Z,1009.78
2022-09-23T11:08:14.052Z,1009.82
2022-09-23T11:09:14.011Z,1009.82
2022-09-23T11:10:28.867Z,1009.80
2022-09-23T11:11:15.170Z,1009.82
2022-09-23T11:12:13.979Z,1009.83
2022-09-23T11:13:13.980Z,1009.79
2022-09-23T11:14:13.973Z,1009.76
2022-09-23T11:15:13.949Z,1009.82
2022-09-23T11:16:13.971Z,1009.74
2022-09-23T11:17:13.934Z,1009.75
2022-09-23T11:18:13.909Z,1009.75
2022-09-23T11:19:13.902Z,1009.71
2022-09-23T11:20:13.907Z,1009.69
2022-09-23T11:21:13.895Z,1009.71
2022-09-23T11:22:13.881Z,1009.68
2022-09-23T11:23:13.890Z,1009.60
2022-09-23T11:24:13.844Z,1009.66
2022-09-23T11:25:13.836Z,1009.64
2022-09-23T11:26:13.821Z,1009.59
2022-09-23T11:27:13.825Z,1009.59
2022-09-23T11:28:13.806Z,1009.62
2022-09-23T11:29:13.804Z,1009.58
2022-09-23T11:30:13.811Z,1009.57
2022-09-23T11:31:13.834Z,1009.56
2022-09-23T11:32:13.753Z,1009.53
2022-09-23T11:33:13.782Z,1009.50
2022-09-23T11:34:13.744Z,1009.54
2022-09-23T11:35:13.723Z,1009.52
2022-09-23T11:36:13.732Z,1009.51
2022-09-23T11:37:13.702Z,1009.49
2022-09-23T11:38:13.687Z,1009.46
2022-09-23T11:39:13.702Z,1009.44
2022-09-23T11:40:13.818Z,1009.46
2022-09-23T11:41:13.661Z,1009.48
2022-09-23T11:42:13.644Z,1009.46
2022-09-23T11:43:13.647Z,1009.45
2022-09-23T11:44:13.637Z,1009.45
2022-09-23T11:45:13.617Z,1009.42
2022-09-23T11:46:13.678Z,1009.46
2022-09-23T11:47:13.608Z,1009.42
2022-09-23T11:48:13.579Z,1009.36
2022-09-23T11:49:13.568Z,1009.41
2022-09-23T11:50:13.560Z,1009.36
2022-09-23T11:51:13.549Z,1009.33
2022-09-23T11:52:13.557Z,1009.34
2022-09-23T11:53:13.539Z,1009.38
2022-09-23T11:54:17.208Z,1009.39
2022-09-23T11:55:21.385Z,1009.39
2022-09-23T11:56:18.195Z,1009.37
2022-09-23T11:57:14.497Z,1009.39
2022-09-23T11:58:22.806Z,1009.34
2022-09-23T11:59:14.682Z,1009.31
2022-09-23T12:00:13.444Z,1009.35
2022-09-23T12:01:13.433Z,1009.31
2022-09-23T12:02:20.162Z,1009.35
2022-09-23T12:03:14.560Z,1009.29
2022-09-23T12:04:19.680Z,1009.36
2022-09-23T12:05:14.635Z,1009.38